sensor_id;sensor_type;location;lat;lon;timestamp;P1;durP1;ratioP1;P2;durP2;ratioP2
67162;SDS011;54092;53.088;8.850;2023-12-07T00:02:18;26.85;;;12.63;;
67162;SDS011;54092;53.088;8.850;2023-12-07T00:04:43;30.27;;;13.00;;
67162;SDS011;54092;53.088;8.850;2023-12-07T00:07:08;26.42;;;12.57;;
67162;SDS011;54092;53.088;8.850;2023-12-07T00:09:34;26.33;;;12.35;;
67162;SDS011;54092;53.088;8.850;2023-12-07T00:12:00;27.63;;;13.40;;
67162;SDS011;54092;53.088;8.850;2023-12-07T00:14:25;29.48;;;12.70;;
67162;SDS011;54092;53.088;8.850;2023-12-07T00:16:50;30.38;;;13.23;;
67162;SDS011;54092;53.088;8.850;2023-12-07T00:19:16;27.65;;;12.55;;
67162;SDS011;54092;53.088;8.850;2023-12-07T00:21:41;26.42;;;11.55;;
67162;SDS011;54092;53.088;8.850;2023-12-07T00:24:07;28.08;;;12.60;;
67162;SDS011;54092;53.088;8.850;2023-12-07T00:26:33;29.70;;;13.73;;
67162;SDS011;54092;53.088;8.850;2023-12-07T00:28:58;28.08;;;13.13;;
67162;SDS011;54092;53.088;8.850;2023-12-07T00:31:24;26.52;;;12.48;;
67162;SDS011;54092;53.088;8.850;2023-12-07T00:33:49;28.70;;;12.65;;
67162;SDS011;54092;53.088;8.850;2023-12-07T00:36:15;29.90;;;12.90;;
67162;SDS011;54092;53.088;8.850;2023-12-07T00:38:41;29.92;;;13.07;;
67162;SDS011;54092;53.088;8.850;2023-12-07T00:41:06;31.58;;;12.80;;
67162;SDS011;54092;53.088;8.850;2023-12-07T00:43:32;29.27;;;13.45;;
67162;SDS011;54092;53.088;8.850;2023-12-07T00:45:58;29.77;;;13.70;;
67162;SDS011;54092;53.088;8.850;2023-12-07T00:48:23;28.52;;;12.90;;
67162;SDS011;54092;53.088;8.850;2023-12-07T00:50:48;28.27;;;12.93;;
67162;SDS011;54092;53.088;8.850;2023-12-07T00:53:14;28.55;;;12.50;;
67162;SDS011;54092;53.088;8.850;2023-12-07T00:55:39;32.67;;;13.07;;
67162;SDS011;54092;53.088;8.850;2023-12-07T00:58:05;27.20;;;11.85;;
67162;SDS011;54092;53.088;8.850;2023-12-07T01:00:31;25.67;;;12.00;;
67162;SDS011;54092;53.088;8.850;2023-12-07T01:02:56;28.80;;;12.02;;
67162;SDS011;54092;53.088;8.850;2023-12-07T01:05:22;26.85;;;12.20;;
67162;SDS011;54092;53.088;8.850;2023-12-07T01:07:47;26.73;;;11.95;;
67162;SDS011;54092;53.088;8.850;2023-12-07T01:10:13;29.55;;;12.45;;
67162;SDS011;54092;53.088;8.850;2023-12-07T01:12:39;28.58;;;12.77;;
67162;SDS011;54092;53.088;8.850;2023-12-07T01:15:04;23.65;;;11.80;;
67162;SDS011;54092;53.088;8.850;2023-12-07T01:17:30;30.48;;;12.70;;
67162;SDS011;54092;53.088;8.850;2023-12-07T01:19:55;28.67;;;12.25;;
67162;SDS011;54092;53.088;8.850;2023-12-07T01:22:21;29.60;;;13.18;;
67162;SDS011;54092;53.088;8.850;2023-12-07T01:24:47;29.55;;;14.02;;
67162;SDS011;54092;53.088;8.850;2023-12-07T01:27:13;27.38;;;12.52;;
67162;SDS011;54092;53.088;8.850;2023-12-07T01:29:38;27.35;;;12.18;;
67162;SDS011;54092;53.088;8.850;2023-12-07T01:32:04;28.55;;;12.40;;
67162;SDS011;54092;53.088;8.850;2023-12-07T01:34:30;26.90;;;12.93;;
67162;SDS011;54092;53.088;8.850;2023-12-07T01:36:57;27.88;;;11.98;;
67162;SDS011;54092;53.088;8.850;2023-12-07T01:39:23;27.58;;;12.27;;
67162;SDS011;54092;53.088;8.850;2023-12-07T01:41:49;27.92;;;12.32;;
67162;SDS011;54092;53.088;8.850;2023-12-07T01:44:15;29.00;;;12.75;;
67162;SDS011;54092;53.088;8.850;2023-12-07T01:46:40;27.13;;;13.23;;
67162;SDS011;54092;53.088;8.850;2023-12-07T01:49:06;30.10;;;12.82;;
67162;SDS011;54092;53.088;8.850;2023-12-07T01:51:32;28.00;;;13.70;;
67162;SDS011;54092;53.088;8.850;2023-12-07T01:53:57;30.10;;;13.48;;
67162;SDS011;54092;53.088;8.850;2023-12-07T01:56:23;26.75;;;11.52;;
67162;SDS011;54092;53.088;8.850;2023-12-07T01:58:49;33.13;;;12.85;;
67162;SDS011;54092;53.088;8.850;2023-12-07T02:01:15;26.95;;;11.75;;
67162;SDS011;54092;53.088;8.850;2023-12-07T02:03:41;26.15;;;12.07;;
67162;SDS011;54092;53.088;8.850;2023-12-07T02:06:07;31.20;;;13.20;;
67162;SDS011;54092;53.088;8.850;2023-12-07T02:08:33;28.92;;;13.07;;
67162;SDS011;54092;53.088;8.850;2023-12-07T02:10:59;25.42;;;12.65;;
67162;SDS011;54092;53.088;8.850;2023-12-07T02:13:25;26.98;;;12.23;;
67162;SDS011;54092;53.088;8.850;2023-12-07T02:15:52;28.65;;;13.30;;
67162;SDS011;54092;53.088;8.850;2023-12-07T02:18:25;24.27;;;11.65;;
67162;SDS011;54092;53.088;8.850;2023-12-07T02:24:08;27.27;;;11.57;;
67162;SDS011;54092;53.088;8.850;2023-12-07T02:26:36;26.17;;;11.80;;
67162;SDS011;54092;53.088;8.850;2023-12-07T02:29:02;28.23;;;12.07;;
67162;SDS011;54092;53.088;8.850;2023-12-07T02:31:28;24.33;;;11.20;;
67162;SDS011;54092;53.088;8.850;2023-12-07T02:33:54;24.80;;;11.57;;
67162;SDS011;54092;53.088;8.850;2023-12-07T02:36:20;28.08;;;12.13;;
67162;SDS011;54092;53.088;8.850;2023-12-07T02:38:49;25.40;;;11.98;;
67162;SDS011;54092;53.088;8.850;2023-12-07T02:41:17;26.08;;;10.90;;
67162;SDS011;54092;53.088;8.850;2023-12-07T02:43:44;30.25;;;12.00;;
67162;SDS011;54092;53.088;8.850;2023-12-07T02:46:10;26.52;;;12.40;;
67162;SDS011;54092;53.088;8.850;2023-12-07T02:48:35;26.00;;;11.98;;
67162;SDS011;54092;53.088;8.850;2023-12-07T02:51:01;28.40;;;11.30;;
67162;SDS011;54092;53.088;8.850;2023-12-07T02:53:26;25.85;;;11.00;;
67162;SDS011;54092;53.088;8.850;2023-12-07T02:55:52;24.92;;;11.02;;
67162;SDS011;54092;53.088;8.850;2023-12-07T02:58:17;26.23;;;11.52;;
67162;SDS011;54092;53.088;8.850;2023-12-07T03:00:43;28.02;;;12.57;;
67162;SDS011;54092;53.088;8.850;2023-12-07T03:03:08;24.83;;;11.90;;
67162;SDS011;54092;53.088;8.850;2023-12-07T03:05:33;28.23;;;12.20;;
67162;SDS011;54092;53.088;8.850;2023-12-07T03:07:59;26.13;;;11.48;;
67162;SDS011;54092;53.088;8.850;2023-12-07T03:10:24;27.38;;;12.35;;
67162;SDS011;54092;53.088;8.850;2023-12-07T03:12:50;24.75;;;11.32;;
67162;SDS011;54092;53.088;8.850;2023-12-07T03:15:15;26.50;;;11.55;;
67162;SDS011;54092;53.088;8.850;2023-12-07T03:17:41;27.77;;;10.95;;
67162;SDS011;54092;53.088;8.850;2023-12-07T03:20:06;25.88;;;11.82;;
67162;SDS011;54092;53.088;8.850;2023-12-07T03:22:33;27.20;;;11.63;;
67162;SDS011;54092;53.088;8.850;2023-12-07T03:24:59;25.13;;;11.43;;
67162;SDS011;54092;53.088;8.850;2023-12-07T03:27:24;26.92;;;12.10;;
67162;SDS011;54092;53.088;8.850;2023-12-07T03:29:50;25.75;;;11.30;;
67162;SDS011;54092;53.088;8.850;2023-12-07T03:32:16;25.83;;;11.35;;
67162;SDS011;54092;53.088;8.850;2023-12-07T03:34:41;24.60;;;10.68;;
67162;SDS011;54092;53.088;8.850;2023-12-07T03:37:07;23.65;;;10.48;;
67162;SDS011;54092;53.088;8.850;2023-12-07T03:39:32;24.15;;;11.45;;
67162;SDS011;54092;53.088;8.850;2023-12-07T03:41:58;23.85;;;10.27;;
67162;SDS011;54092;53.088;8.850;2023-12-07T03:44:23;27.42;;;12.15;;
67162;SDS011;54092;53.088;8.850;2023-12-07T03:46:51;24.83;;;11.02;;
67162;SDS011;54092;53.088;8.850;2023-12-07T03:49:17;23.23;;;10.95;;
67162;SDS011;54092;53.088;8.850;2023-12-07T03:51:42;26.27;;;11.90;;
67162;SDS011;54092;53.088;8.850;2023-12-07T03:54:08;25.50;;;11.15;;
67162;SDS011;54092;53.088;8.850;2023-12-07T03:56:33;23.92;;;11.15;;
67162;SDS011;54092;53.088;8.850;2023-12-07T03:58:59;22.75;;;10.95;;
67162;SDS011;54092;53.088;8.850;2023-12-07T04:01:24;25.48;;;12.10;;
67162;SDS011;54092;53.088;8.850;2023-12-07T04:03:52;22.70;;;11.10;;
67162;SDS011;54092;53.088;8.850;2023-12-07T04:06:18;24.10;;;11.15;;
67162;SDS011;54092;53.088;8.850;2023-12-07T04:08:44;23.05;;;11.13;;
67162;SDS011;54092;53.088;8.850;2023-12-07T04:11:10;24.50;;;10.93;;
67162;SDS011;54092;53.088;8.850;2023-12-07T04:13:35;23.88;;;11.27;;
67162;SDS011;54092;53.088;8.850;2023-12-07T04:16:01;23.73;;;10.77;;
67162;SDS011;54092;53.088;8.850;2023-12-07T04:18:28;24.45;;;11.35;;
67162;SDS011;54092;53.088;8.850;2023-12-07T04:20:53;21.17;;;10.73;;
67162;SDS011;54092;53.088;8.850;2023-12-07T04:23:19;21.75;;;10.40;;
67162;SDS011;54092;53.088;8.850;2023-12-07T04:25:44;23.33;;;11.13;;
67162;SDS011;54092;53.088;8.850;2023-12-07T04:28:10;23.05;;;10.52;;
67162;SDS011;54092;53.088;8.850;2023-12-07T04:30:35;25.00;;;10.60;;
67162;SDS011;54092;53.088;8.850;2023-12-07T04:33:01;22.45;;;11.45;;
67162;SDS011;54092;53.088;8.850;2023-12-07T04:35:26;19.33;;;10.60;;
67162;SDS011;54092;53.088;8.850;2023-12-07T04:37:53;24.83;;;11.05;;
67162;SDS011;54092;53.088;8.850;2023-12-07T04:40:19;22.48;;;10.70;;
67162;SDS011;54092;53.088;8.850;2023-12-07T04:42:44;24.50;;;10.52;;
67162;SDS011;54092;53.088;8.850;2023-12-07T04:45:10;22.50;;;10.40;;
67162;SDS011;54092;53.088;8.850;2023-12-07T04:47:35;23.58;;;10.40;;
67162;SDS011;54092;53.088;8.850;2023-12-07T04:50:01;23.90;;;11.05;;
67162;SDS011;54092;53.088;8.850;2023-12-07T04:52:27;25.13;;;10.73;;
67162;SDS011;54092;53.088;8.850;2023-12-07T04:54:52;23.17;;;10.85;;
67162;SDS011;54092;53.088;8.850;2023-12-07T04:57:18;23.38;;;12.30;;
67162;SDS011;54092;53.088;8.850;2023-12-07T04:59:43;21.10;;;10.55;;
67162;SDS011;54092;53.088;8.850;2023-12-07T05:02:13;23.02;;;9.98;;
67162;SDS011;54092;53.088;8.850;2023-12-07T05:04:39;23.15;;;10.98;;
67162;SDS011;54092;53.088;8.850;2023-12-07T05:07:04;23.77;;;11.43;;
67162;SDS011;54092;53.088;8.850;2023-12-07T05:09:30;22.48;;;9.82;;
67162;SDS011;54092;53.088;8.850;2023-12-07T05:11:56;21.80;;;10.68;;
67162;SDS011;54092;53.088;8.850;2023-12-07T05:14:21;21.92;;;10.30;;
67162;SDS011;54092;53.088;8.850;2023-12-07T05:16:48;23.13;;;11.07;;
67162;SDS011;54092;53.088;8.850;2023-12-07T05:19:17;21.63;;;11.05;;
67162;SDS011;54092;53.088;8.850;2023-12-07T05:21:45;22.92;;;10.27;;
67162;SDS011;54092;53.088;8.850;2023-12-07T05:24:11;20.75;;;10.35;;
67162;SDS011;54092;53.088;8.850;2023-12-07T05:26:37;22.95;;;10.45;;
67162;SDS011;54092;53.088;8.850;2023-12-07T05:29:03;24.92;;;11.13;;
67162;SDS011;54092;53.088;8.850;2023-12-07T05:31:29;24.95;;;11.57;;
67162;SDS011;54092;53.088;8.850;2023-12-07T05:33:55;22.52;;;11.13;;
67162;SDS011;54092;53.088;8.850;2023-12-07T05:36:20;20.25;;;9.40;;
67162;SDS011;54092;53.088;8.850;2023-12-07T05:38:46;23.10;;;10.32;;
67162;SDS011;54092;53.088;8.850;2023-12-07T05:41:11;23.65;;;11.50;;
67162;SDS011;54092;53.088;8.850;2023-12-07T05:43:40;24.67;;;10.88;;
67162;SDS011;54092;53.088;8.850;2023-12-07T05:46:06;22.00;;;10.00;;
67162;SDS011;54092;53.088;8.850;2023-12-07T05:48:32;21.25;;;9.82;;
67162;SDS011;54092;53.088;8.850;2023-12-07T05:50:58;23.17;;;10.57;;
67162;SDS011;54092;53.088;8.850;2023-12-07T05:53:23;22.38;;;10.50;;
67162;SDS011;54092;53.088;8.850;2023-12-07T05:55:49;24.05;;;10.20;;
67162;SDS011;54092;53.088;8.850;2023-12-07T05:58:15;24.92;;;11.32;;
67162;SDS011;54092;53.088;8.850;2023-12-07T06:00:42;22.33;;;10.82;;
67162;SDS011;54092;53.088;8.850;2023-12-07T06:03:08;23.13;;;10.10;;
67162;SDS011;54092;53.088;8.850;2023-12-07T06:05:36;20.08;;;8.68;;
67162;SDS011;54092;53.088;8.850;2023-12-07T06:08:03;21.67;;;10.23;;
67162;SDS011;54092;53.088;8.850;2023-12-07T06:10:29;20.80;;;9.73;;
67162;SDS011;54092;53.088;8.850;2023-12-07T06:12:55;22.73;;;11.00;;
67162;SDS011;54092;53.088;8.850;2023-12-07T06:15:23;21.13;;;10.48;;
67162;SDS011;54092;53.088;8.850;2023-12-07T06:17:49;22.90;;;10.10;;
67162;SDS011;54092;53.088;8.850;2023-12-07T06:20:14;25.17;;;10.32;;
67162;SDS011;54092;53.088;8.850;2023-12-07T06:22:40;22.42;;;10.35;;
67162;SDS011;54092;53.088;8.850;2023-12-07T06:25:06;20.02;;;9.63;;
67162;SDS011;54092;53.088;8.850;2023-12-07T06:27:33;21.20;;;10.57;;
67162;SDS011;54092;53.088;8.850;2023-12-07T06:29:59;22.33;;;9.57;;
67162;SDS011;54092;53.088;8.850;2023-12-07T06:32:25;21.55;;;10.05;;
67162;SDS011;54092;53.088;8.850;2023-12-07T06:34:51;25.67;;;10.60;;
67162;SDS011;54092;53.088;8.850;2023-12-07T06:37:16;25.33;;;10.85;;
67162;SDS011;54092;53.088;8.850;2023-12-07T06:39:42;23.67;;;11.05;;
67162;SDS011;54092;53.088;8.850;2023-12-07T06:42:08;24.02;;;10.70;;
67162;SDS011;54092;53.088;8.850;2023-12-07T06:44:33;23.25;;;10.75;;
67162;SDS011;54092;53.088;8.850;2023-12-07T06:47:00;23.98;;;10.98;;
67162;SDS011;54092;53.088;8.850;2023-12-07T06:49:28;27.42;;;11.70;;
67162;SDS011;54092;53.088;8.850;2023-12-07T06:51:53;30.20;;;11.73;;
67162;SDS011;54092;53.088;8.850;2023-12-07T06:54:19;21.80;;;9.95;;
67162;SDS011;54092;53.088;8.850;2023-12-07T06:56:44;22.52;;;10.20;;
67162;SDS011;54092;53.088;8.850;2023-12-07T06:59:11;20.30;;;10.07;;
67162;SDS011;54092;53.088;8.850;2023-12-07T07:01:36;22.27;;;10.73;;
67162;SDS011;54092;53.088;8.850;2023-12-07T07:04:03;22.88;;;9.98;;
67162;SDS011;54092;53.088;8.850;2023-12-07T07:06:28;21.40;;;10.32;;
67162;SDS011;54092;53.088;8.850;2023-12-07T07:08:54;19.98;;;9.82;;
67162;SDS011;54092;53.088;8.850;2023-12-07T07:11:19;23.20;;;9.45;;
67162;SDS011;54092;53.088;8.850;2023-12-07T07:13:45;21.75;;;10.77;;
67162;SDS011;54092;53.088;8.850;2023-12-07T07:16:10;21.25;;;10.38;;
67162;SDS011;54092;53.088;8.850;2023-12-07T07:18:39;21.58;;;9.75;;
67162;SDS011;54092;53.088;8.850;2023-12-07T07:21:05;22.30;;;10.40;;
67162;SDS011;54092;53.088;8.850;2023-12-07T07:23:31;23.02;;;10.45;;
67162;SDS011;54092;53.088;8.850;2023-12-07T07:25:57;19.42;;;9.38;;
67162;SDS011;54092;53.088;8.850;2023-12-07T07:28:22;23.05;;;11.02;;
67162;SDS011;54092;53.088;8.850;2023-12-07T07:30:48;23.73;;;11.05;;
67162;SDS011;54092;53.088;8.850;2023-12-07T07:33:13;23.00;;;11.35;;
67162;SDS011;54092;53.088;8.850;2023-12-07T07:35:39;21.75;;;10.25;;
67162;SDS011;54092;53.088;8.850;2023-12-07T07:38:04;21.55;;;10.65;;
67162;SDS011;54092;53.088;8.850;2023-12-07T07:40:30;25.50;;;11.07;;
67162;SDS011;54092;53.088;8.850;2023-12-07T07:42:55;22.25;;;10.60;;
67162;SDS011;54092;53.088;8.850;2023-12-07T07:45:21;20.17;;;9.18;;
67162;SDS011;54092;53.088;8.850;2023-12-07T07:47:46;20.50;;;9.68;;
67162;SDS011;54092;53.088;8.850;2023-12-07T07:50:12;27.13;;;10.52;;
67162;SDS011;54092;53.088;8.850;2023-12-07T07:52:37;20.33;;;10.20;;
67162;SDS011;54092;53.088;8.850;2023-12-07T07:55:05;22.48;;;10.07;;
67162;SDS011;54092;53.088;8.850;2023-12-07T07:57:30;21.38;;;11.15;;
67162;SDS011;54092;53.088;8.850;2023-12-07T07:59:56;23.75;;;11.35;;
67162;SDS011;54092;53.088;8.850;2023-12-07T08:02:23;22.98;;;9.85;;
67162;SDS011;54092;53.088;8.850;2023-12-07T08:04:48;26.90;;;11.77;;
67162;SDS011;54092;53.088;8.850;2023-12-07T08:07:14;24.83;;;11.00;;
67162;SDS011;54092;53.088;8.850;2023-12-07T08:09:40;22.27;;;9.95;;
67162;SDS011;54092;53.088;8.850;2023-12-07T08:12:06;22.20;;;9.45;;
67162;SDS011;54092;53.088;8.850;2023-12-07T08:14:34;22.08;;;10.63;;
67162;SDS011;54092;53.088;8.850;2023-12-07T08:17:00;22.58;;;10.25;;
67162;SDS011;54092;53.088;8.850;2023-12-07T08:19:26;25.17;;;10.63;;
67162;SDS011;54092;53.088;8.850;2023-12-07T08:21:52;24.42;;;11.45;;
67162;SDS011;54092;53.088;8.850;2023-12-07T08:24:17;25.05;;;10.52;;
67162;SDS011;54092;53.088;8.850;2023-12-07T08:26:43;25.77;;;11.00;;
67162;SDS011;54092;53.088;8.850;2023-12-07T08:29:08;22.27;;;10.32;;
67162;SDS011;54092;53.088;8.850;2023-12-07T08:31:34;20.85;;;9.70;;
67162;SDS011;54092;53.088;8.850;2023-12-07T08:33:59;26.38;;;10.50;;
67162;SDS011;54092;53.088;8.850;2023-12-07T08:36:25;22.50;;;10.45;;
67162;SDS011;54092;53.088;8.850;2023-12-07T08:38:51;20.63;;;9.82;;
67162;SDS011;54092;53.088;8.850;2023-12-07T08:41:17;23.00;;;10.40;;
67162;SDS011;54092;53.088;8.850;2023-12-07T08:43:43;20.80;;;9.20;;
67162;SDS011;54092;53.088;8.850;2023-12-07T08:46:08;18.88;;;9.90;;
67162;SDS011;54092;53.088;8.850;2023-12-07T08:48:35;20.55;;;10.70;;
67162;SDS011;54092;53.088;8.850;2023-12-07T08:51:02;21.92;;;10.35;;
67162;SDS011;54092;53.088;8.850;2023-12-07T08:53:28;21.27;;;10.05;;
67162;SDS011;54092;53.088;8.850;2023-12-07T08:55:54;21.40;;;10.77;;
67162;SDS011;54092;53.088;8.850;2023-12-07T08:58:19;24.65;;;10.35;;
67162;SDS011;54092;53.088;8.850;2023-12-07T09:00:45;22.35;;;9.95;;
67162;SDS011;54092;53.088;8.850;2023-12-07T09:03:11;22.48;;;10.40;;
67162;SDS011;54092;53.088;8.850;2023-12-07T09:05:37;26.35;;;11.32;;
67162;SDS011;54092;53.088;8.850;2023-12-07T09:08:02;23.23;;;9.82;;
67162;SDS011;54092;53.088;8.850;2023-12-07T09:10:28;20.02;;;10.10;;
67162;SDS011;54092;53.088;8.850;2023-12-07T09:12:54;22.73;;;10.52;;
67162;SDS011;54092;53.088;8.850;2023-12-07T09:15:19;19.52;;;9.85;;
67162;SDS011;54092;53.088;8.850;2023-12-07T09:17:46;21.27;;;9.68;;
67162;SDS011;54092;53.088;8.850;2023-12-07T09:20:13;24.17;;;10.63;;
67162;SDS011;54092;53.088;8.850;2023-12-07T09:22:42;20.65;;;10.00;;
67162;SDS011;54092;53.088;8.850;2023-12-07T09:25:09;23.73;;;10.93;;
67162;SDS011;54092;53.088;8.850;2023-12-07T09:27:35;22.70;;;10.88;;
67162;SDS011;54092;53.088;8.850;2023-12-07T09:30:03;27.10;;;11.63;;
67162;SDS011;54092;53.088;8.850;2023-12-07T09:32:30;23.88;;;11.95;;
67162;SDS011;54092;53.088;8.850;2023-12-07T09:34:55;20.83;;;10.68;;
67162;SDS011;54092;53.088;8.850;2023-12-07T09:37:21;21.27;;;10.13;;
67162;SDS011;54092;53.088;8.850;2023-12-07T09:39:46;24.55;;;11.18;;
67162;SDS011;54092;53.088;8.850;2023-12-07T09:42:12;23.60;;;10.70;;
67162;SDS011;54092;53.088;8.850;2023-12-07T09:44:37;24.10;;;10.73;;
67162;SDS011;54092;53.088;8.850;2023-12-07T09:47:03;22.58;;;10.25;;
67162;SDS011;54092;53.088;8.850;2023-12-07T09:49:30;27.08;;;11.50;;
67162;SDS011;54092;53.088;8.850;2023-12-07T09:51:55;21.80;;;9.93;;
67162;SDS011;54092;53.088;8.850;2023-12-07T09:54:23;19.85;;;9.68;;
67162;SDS011;54092;53.088;8.850;2023-12-07T09:56:50;21.77;;;9.82;;
67162;SDS011;54092;53.088;8.850;2023-12-07T09:59:18;27.88;;;10.43;;
67162;SDS011;54092;53.088;8.850;2023-12-07T10:01:43;23.05;;;10.48;;
67162;SDS011;54092;53.088;8.850;2023-12-07T10:04:19;22.27;;;10.93;;
67162;SDS011;54092;53.088;8.850;2023-12-07T10:06:47;21.58;;;10.05;;
67162;SDS011;54092;53.088;8.850;2023-12-07T10:09:14;22.83;;;11.20;;
67162;SDS011;54092;53.088;8.850;2023-12-07T10:11:40;20.95;;;10.10;;
67162;SDS011;54092;53.088;8.850;2023-12-07T10:14:09;19.92;;;10.05;;
67162;SDS011;54092;53.088;8.850;2023-12-07T10:16:35;18.83;;;9.70;;
67162;SDS011;54092;53.088;8.850;2023-12-07T10:19:16;18.95;;;9.27;;
67162;SDS011;54092;53.088;8.850;2023-12-07T10:21:49;21.17;;;10.20;;
67162;SDS011;54092;53.088;8.850;2023-12-07T10:24:19;21.50;;;9.93;;
67162;SDS011;54092;53.088;8.850;2023-12-07T10:26:46;22.98;;;10.25;;
67162;SDS011;54092;53.088;8.850;2023-12-07T10:29:13;23.35;;;9.77;;
67162;SDS011;54092;53.088;8.850;2023-12-07T10:31:38;22.90;;;11.48;;
67162;SDS011;54092;53.088;8.850;2023-12-07T10:34:05;24.90;;;10.63;;
67162;SDS011;54092;53.088;8.850;2023-12-07T10:36:30;21.00;;;10.02;;
67162;SDS011;54092;53.088;8.850;2023-12-07T10:38:57;21.50;;;10.23;;
67162;SDS011;54092;53.088;8.850;2023-12-07T10:41:23;20.30;;;9.98;;
67162;SDS011;54092;53.088;8.850;2023-12-07T10:43:59;19.27;;;9.82;;
67162;SDS011;54092;53.088;8.850;2023-12-07T10:46:26;23.27;;;10.75;;
67162;SDS011;54092;53.088;8.850;2023-12-07T10:49:03;20.83;;;9.82;;
67162;SDS011;54092;53.088;8.850;2023-12-07T10:51:51;20.27;;;9.85;;
67162;SDS011;54092;53.088;8.850;2023-12-07T10:54:27;20.60;;;9.30;;
67162;SDS011;54092;53.088;8.850;2023-12-07T10:57:02;18.02;;;9.30;;
67162;SDS011;54092;53.088;8.850;2023-12-07T10:59:30;19.88;;;10.10;;
67162;SDS011;54092;53.088;8.850;2023-12-07T11:01:57;23.33;;;9.65;;
67162;SDS011;54092;53.088;8.850;2023-12-07T11:04:23;21.88;;;10.05;;
67162;SDS011;54092;53.088;8.850;2023-12-07T11:06:50;22.50;;;9.93;;
67162;SDS011;54092;53.088;8.850;2023-12-07T11:09:23;20.23;;;9.75;;
67162;SDS011;54092;53.088;8.850;2023-12-07T11:11:57;22.25;;;10.35;;
67162;SDS011;54092;53.088;8.850;2023-12-07T11:14:27;19.90;;;10.20;;
67162;SDS011;54092;53.088;8.850;2023-12-07T11:16:53;19.42;;;10.63;;
67162;SDS011;54092;53.088;8.850;2023-12-07T11:22:07;21.95;;;9.82;;
67162;SDS011;54092;53.088;8.850;2023-12-07T11:24:35;22.70;;;9.68;;
67162;SDS011;54092;53.088;8.850;2023-12-07T11:27:01;20.25;;;9.65;;
67162;SDS011;54092;53.088;8.850;2023-12-07T11:29:30;18.75;;;9.35;;
67162;SDS011;54092;53.088;8.850;2023-12-07T11:31:57;19.52;;;9.45;;
67162;SDS011;54092;53.088;8.850;2023-12-07T11:34:35;19.17;;;9.20;;
67162;SDS011;54092;53.088;8.850;2023-12-07T11:37:04;18.27;;;8.90;;
67162;SDS011;54092;53.088;8.850;2023-12-07T11:39:37;18.85;;;9.65;;
67162;SDS011;54092;53.088;8.850;2023-12-07T11:42:07;18.33;;;9.35;;
67162;SDS011;54092;53.088;8.850;2023-12-07T11:44:44;19.80;;;9.70;;
67162;SDS011;54092;53.088;8.850;2023-12-07T11:47:18;19.58;;;9.75;;
67162;SDS011;54092;53.088;8.850;2023-12-07T11:49:45;23.83;;;10.38;;
67162;SDS011;54092;53.088;8.850;2023-12-07T11:52:12;19.27;;;10.20;;
67162;SDS011;54092;53.088;8.850;2023-12-07T11:54:43;26.50;;;10.23;;
67162;SDS011;54092;53.088;8.850;2023-12-07T11:57:09;22.98;;;10.00;;
67162;SDS011;54092;53.088;8.850;2023-12-07T11:59:35;21.83;;;9.75;;
67162;SDS011;54092;53.088;8.850;2023-12-07T12:02:01;18.92;;;9.50;;
67162;SDS011;54092;53.088;8.850;2023-12-07T12:04:29;21.05;;;9.18;;
67162;SDS011;54092;53.088;8.850;2023-12-07T12:06:55;20.25;;;9.88;;
67162;SDS011;54092;53.088;8.850;2023-12-07T12:09:20;21.80;;;9.38;;
67162;SDS011;54092;53.088;8.850;2023-12-07T12:11:46;21.40;;;10.00;;
67162;SDS011;54092;53.088;8.850;2023-12-07T12:14:13;20.85;;;10.52;;
67162;SDS011;54092;53.088;8.850;2023-12-07T12:16:40;17.75;;;9.10;;
67162;SDS011;54092;53.088;8.850;2023-12-07T12:19:05;21.55;;;10.35;;
67162;SDS011;54092;53.088;8.850;2023-12-07T12:21:34;22.38;;;10.32;;
67162;SDS011;54092;53.088;8.850;2023-12-07T12:24:03;23.63;;;11.90;;
67162;SDS011;54092;53.088;8.850;2023-12-07T12:26:35;21.83;;;10.27;;
67162;SDS011;54092;53.088;8.850;2023-12-07T12:29:03;21.85;;;11.13;;
67162;SDS011;54092;53.088;8.850;2023-12-07T12:31:29;20.90;;;10.40;;
67162;SDS011;54092;53.088;8.850;2023-12-07T12:33:55;20.40;;;9.88;;
67162;SDS011;54092;53.088;8.850;2023-12-07T12:36:20;24.88;;;11.32;;
67162;SDS011;54092;53.088;8.850;2023-12-07T12:38:52;21.70;;;9.88;;
67162;SDS011;54092;53.088;8.850;2023-12-07T12:41:18;24.67;;;10.68;;
67162;SDS011;54092;53.088;8.850;2023-12-07T12:43:44;22.48;;;10.32;;
67162;SDS011;54092;53.088;8.850;2023-12-07T12:46:10;20.90;;;10.43;;
67162;SDS011;54092;53.088;8.850;2023-12-07T12:48:36;22.08;;;11.00;;
67162;SDS011;54092;53.088;8.850;2023-12-07T12:51:08;17.40;;;9.68;;
67162;SDS011;54092;53.088;8.850;2023-12-07T12:53:41;23.40;;;11.30;;
67162;SDS011;54092;53.088;8.850;2023-12-07T12:56:10;22.20;;;11.23;;
67162;SDS011;54092;53.088;8.850;2023-12-07T12:58:36;24.75;;;11.07;;
67162;SDS011;54092;53.088;8.850;2023-12-07T13:01:02;19.35;;;10.95;;
67162;SDS011;54092;53.088;8.850;2023-12-07T13:03:28;21.33;;;9.73;;
67162;SDS011;54092;53.088;8.850;2023-12-07T13:05:54;22.08;;;11.05;;
67162;SDS011;54092;53.088;8.850;2023-12-07T13:08:20;22.05;;;10.00;;
67162;SDS011;54092;53.088;8.850;2023-12-07T13:10:46;25.30;;;11.13;;
67162;SDS011;54092;53.088;8.850;2023-12-07T13:13:11;25.23;;;11.48;;
67162;SDS011;54092;53.088;8.850;2023-12-07T13:15:37;21.23;;;9.82;;
67162;SDS011;54092;53.088;8.850;2023-12-07T13:18:02;20.35;;;10.57;;
67162;SDS011;54092;53.088;8.850;2023-12-07T13:20:29;22.15;;;11.15;;
67162;SDS011;54092;53.088;8.850;2023-12-07T13:22:56;20.52;;;10.90;;
67162;SDS011;54092;53.088;8.850;2023-12-07T13:25:21;20.98;;;10.55;;
67162;SDS011;54092;53.088;8.850;2023-12-07T13:27:47;21.30;;;11.45;;
67162;SDS011;54092;53.088;8.850;2023-12-07T13:30:12;22.95;;;10.55;;
67162;SDS011;54092;53.088;8.850;2023-12-07T13:32:38;24.27;;;11.55;;
67162;SDS011;54092;53.088;8.850;2023-12-07T13:35:04;20.10;;;11.20;;
67162;SDS011;54092;53.088;8.850;2023-12-07T13:37:31;21.00;;;11.05;;
67162;SDS011;54092;53.088;8.850;2023-12-07T13:39:57;21.73;;;10.75;;
67162;SDS011;54092;53.088;8.850;2023-12-07T13:42:24;24.92;;;11.93;;
67162;SDS011;54092;53.088;8.850;2023-12-07T13:44:51;24.83;;;11.55;;
67162;SDS011;54092;53.088;8.850;2023-12-07T13:47:22;26.35;;;10.77;;
67162;SDS011;54092;53.088;8.850;2023-12-07T13:49:55;23.27;;;11.52;;
67162;SDS011;54092;53.088;8.850;2023-12-07T13:52:21;23.40;;;10.95;;
67162;SDS011;54092;53.088;8.850;2023-12-07T13:54:47;24.65;;;11.32;;
67162;SDS011;54092;53.088;8.850;2023-12-07T13:57:13;22.90;;;11.57;;
67162;SDS011;54092;53.088;8.850;2023-12-07T13:59:39;25.55;;;12.38;;
67162;SDS011;54092;53.088;8.850;2023-12-07T14:02:05;26.10;;;12.15;;
67162;SDS011;54092;53.088;8.850;2023-12-07T14:04:32;23.67;;;11.85;;
67162;SDS011;54092;53.088;8.850;2023-12-07T14:07:08;23.50;;;12.18;;
67162;SDS011;54092;53.088;8.850;2023-12-07T14:09:41;22.83;;;11.20;;
67162;SDS011;54092;53.088;8.850;2023-12-07T14:12:08;22.45;;;11.52;;
67162;SDS011;54092;53.088;8.850;2023-12-07T14:14:35;24.17;;;12.05;;
67162;SDS011;54092;53.088;8.850;2023-12-07T14:17:01;22.08;;;11.57;;
67162;SDS011;54092;53.088;8.850;2023-12-07T14:19:28;23.52;;;11.43;;
67162;SDS011;54092;53.088;8.850;2023-12-07T14:21:53;23.42;;;10.75;;
67162;SDS011;54092;53.088;8.850;2023-12-07T14:24:19;25.80;;;10.95;;
67162;SDS011;54092;53.088;8.850;2023-12-07T14:26:45;23.80;;;11.55;;